Afton, OK (74331)

10:41 AM CDT on July 04, 2015 (GMT -0500)
Grand Lake, OK - Beverly Heights, Cleora | | Change Station
CLOSE
Current Station
Personal Weather Station
Location: Afton, OK
Elevation: 781 ft
Nearby Weather Stations

Elev 781 ft 36.58 °N, 94.93 °W | Updated 11 seconds ago

Partly Cloudy
Partly Cloudy
81.9 °F
Feels Like 87 °F
N
1.1
Wind Variable Wind from ESE
Gusts 3.2 mph

Today
High -- | Low -- °F
--% Chance of Precip.
Yesterday
High -- | Low -- °F
Precip. -- in
6:05 AM 8:41 PM
Waning Gibbous, 91% visible
Pressure 30.00 in
Visibility 10.0 miles
Clouds Scattered Clouds 2200 ft
Scattered Clouds 3000 ft
Scattered Clouds 6000 ft
Heat Index 87 °F
Dew Point 72 °F
Humidity 72%
Rainfall 0.00 in
Snow Depth Not available.
UV 6 out of 12
Pollen 3.00 out of 12
Air Quality Not available.
Flu Activity Not available.
METAR KGMJ 041535Z AUTO 06005KT 10SM SCT022 SCT030 SCT060 28/21 A3000 RMK AO2

More Conditions Fewer Conditions

Pressure 30.00 in
Visibility 10.0 miles
Clouds Scattered Clouds 2200 ft
Scattered Clouds 3000 ft
Scattered Clouds 6000 ft
Heat Index 87 °F
Dew Point 72 °F
Humidity 72%
Rainfall 0.00 in
Snow Depth Not available.
UV 6 out of 12
Pollen 3.00 out of 12
Air Quality Not available.
Flu Activity Not available.
METAR KGMJ 041535Z AUTO 06005KT 10SM SCT022 SCT030 SCT060 28/21 A3000 RMK AO2

More Conditions Fewer Conditions

Nowcast | as of 9:59 am CDT on July 4, 2015

At 10 am...National Weather Service radars continued to indicate thunderstorms and rainshowers over portions of eastern Oklahoma. This activity was located from Henryetta to Eufaula...and from Talihina to just south of Wilburton. Movement was to the southeast at 25 miles an hour. Through 11 am...thunderstorms and rainshowers will continue just south of the Interstate 40 corridor...and across southeast Oklahoma from east of Clayton to Big Cedar. Brief heavy rainfall...gusty winds...and dangerous cloud to ground lightning will occur with any of the stronger storms.

×

10-Day Weather Forecast

×

Almanac

Astronomy

Jul. 04, 2015 Rise Set
Actual Time
Civil Twilight
Nautical Twilight
Astronomical Twilight
Moon
Length of Visible Light
Length of Day
Tomorrow will be .
, % of the Moon is Illuminated

Today's Extremes

State Highs State Lows

Community

WunderPhotos

Upload Photos

1,834,989 photos uploaded!

WunderBlogs® & News

Nearby

Air Quality

  Air Quality AQ Index Pollutant
Not available.

Snow Depth

Station Depth Elevation

Earthquake Activity

City Distance Mag. Time & Date
Minimum magnitude displayed is 2.5.

Coastal Water Temperatures

Place Temperature

Stations

Nearby Weather Stations

Station Location Temp. Windchill Dew Point Humidity Wind Precip. Elev Updated Type